createdAt,value
2023-12-08T00:02:34.660Z,17.55
2023-12-08T00:07:26.900Z,17.27
2023-12-08T00:12:18.872Z,19.77
2023-12-08T00:17:10.722Z,25.92
2023-12-08T00:22:03.309Z,25.80
2023-12-08T00:26:55.172Z,30.25
2023-12-08T00:31:47.267Z,16.45
2023-12-08T00:36:42.039Z,16.55
2023-12-08T00:41:33.974Z,13.50
2023-12-08T00:46:25.834Z,23.55
2023-12-08T00:51:17.645Z,16.73
2023-12-08T00:56:10.234Z,18.58
2023-12-08T01:01:02.155Z,19.30
2023-12-08T01:05:54.005Z,25.58
2023-12-08T01:10:45.818Z,21.73
2023-12-08T01:15:37.653Z,17.27
2023-12-08T01:20:29.531Z,16.48
2023-12-08T01:25:21.481Z,12.40
2023-12-08T01:30:13.774Z,11.10
2023-12-08T01:35:06.060Z,13.10
2023-12-08T01:39:59.584Z,12.93
2023-12-08T01:44:51.826Z,15.20
2023-12-08T01:49:44.001Z,16.88
2023-12-08T01:54:36.032Z,17.13
2023-12-08T01:59:28.518Z,12.30
2023-12-08T02:04:20.400Z,15.57
2023-12-08T02:09:13.884Z,16.63
2023-12-08T02:14:06.107Z,15.90
2023-12-08T02:18:58.194Z,6.35
2023-12-08T02:23:50.602Z,6.93
2023-12-08T02:28:42.533Z,7.22
2023-12-08T02:33:34.734Z,8.20
2023-12-08T02:38:27.290Z,6.50
2023-12-08T02:43:19.126Z,5.07
2023-12-08T02:48:11.022Z,5.68
2023-12-08T02:53:03.035Z,4.45
2023-12-08T02:57:54.799Z,4.30
2023-12-08T03:02:46.692Z,3.63
2023-12-08T03:07:38.686Z,3.78
2023-12-08T03:12:30.559Z,4.75
2023-12-08T03:17:22.611Z,6.55
2023-12-08T03:22:14.462Z,5.20
2023-12-08T03:27:06.254Z,5.82
2023-12-08T03:31:58.086Z,7.90
2023-12-08T03:36:49.857Z,7.55
2023-12-08T03:41:41.693Z,7.40
2023-12-08T03:46:33.492Z,8.95
2023-12-08T03:51:25.293Z,9.30
2023-12-08T03:56:17.137Z,11.25
2023-12-08T04:01:09.812Z,11.80
2023-12-08T04:06:02.897Z,11.45
2023-12-08T04:10:54.866Z,12.57
2023-12-08T04:15:46.677Z,10.90
2023-12-08T04:20:38.533Z,10.40
2023-12-08T04:25:30.301Z,8.07
2023-12-08T04:30:22.115Z,8.30
2023-12-08T04:35:14.135Z,10.18
2023-12-08T04:40:06.373Z,9.05
2023-12-08T04:44:58.236Z,11.85
2023-12-08T04:49:50.265Z,11.85
2023-12-08T04:54:42.134Z,10.77
2023-12-08T04:59:33.932Z,10.65
2023-12-08T05:04:25.722Z,11.60
2023-12-08T05:09:18.319Z,12.60
2023-12-08T05:14:10.142Z,14.65
2023-12-08T05:19:02.061Z,15.32
2023-12-08T05:23:54.004Z,15.18
2023-12-08T05:28:45.877Z,14.32
2023-12-08T05:33:38.324Z,21.13
2023-12-08T05:38:30.330Z,16.45
2023-12-08T05:43:23.141Z,16.75
2023-12-08T05:48:15.109Z,17.13
2023-12-08T05:53:06.966Z,19.42
2023-12-08T05:57:58.742Z,17.45
2023-12-08T06:02:50.664Z,17.73
2023-12-08T06:07:42.811Z,17.20
2023-12-08T06:12:37.908Z,19.73
2023-12-08T06:17:29.996Z,19.33
2023-12-08T06:22:22.049Z,16.25
2023-12-08T06:27:14.021Z,17.42
2023-12-08T06:32:06.637Z,14.85
2023-12-08T06:36:58.481Z,36.17
2023-12-08T06:41:50.285Z,20.60
2023-12-08T06:46:43.539Z,22.20
2023-12-08T06:51:36.658Z,20.40
2023-12-08T06:56:28.462Z,15.55
2023-12-08T07:01:20.307Z,17.65
2023-12-08T07:06:12.317Z,17.17
2023-12-08T07:11:04.430Z,18.60
2023-12-08T07:15:56.297Z,18.85
2023-12-08T07:20:48.182Z,16.77
2023-12-08T07:25:40.154Z,16.98
2023-12-08T07:30:32.153Z,16.70
2023-12-08T07:35:24.021Z,16.95
2023-12-08T07:40:17.987Z,15.45
2023-12-08T07:45:11.537Z,16.42
2023-12-08T07:50:03.690Z,18.00
2023-12-08T07:54:55.937Z,20.85
2023-12-08T07:59:49.253Z,20.25
2023-12-08T08:04:42.465Z,19.88
2023-12-08T08:09:34.346Z,20.17
2023-12-08T08:14:26.225Z,19.77
2023-12-08T08:19:18.175Z,19.17
2023-12-08T08:24:10.299Z,19.85
2023-12-08T08:29:02.223Z,19.30
2023-12-08T08:33:54.226Z,19.60
2023-12-08T08:38:46.228Z,20.50
2023-12-08T08:43:38.253Z,21.08
2023-12-08T08:48:30.248Z,23.73
2023-12-08T08:53:22.395Z,22.35
2023-12-08T08:58:14.201Z,22.80
2023-12-08T09:03:06.030Z,23.58
2023-12-08T09:07:58.199Z,22.55
2023-12-08T09:12:49.955Z,24.85
2023-12-08T09:17:42.623Z,24.27
2023-12-08T09:22:35.311Z,27.40
2023-12-08T09:27:27.920Z,23.77
2023-12-08T09:32:20.475Z,27.70
2023-12-08T09:37:26.806Z,25.80
2023-12-08T09:42:36.788Z,26.50
2023-12-08T09:47:30.734Z,23.95
2023-12-08T09:52:23.984Z,24.75
2023-12-08T09:57:17.176Z,26.73
2023-12-08T10:02:09.075Z,22.80
2023-12-08T10:07:03.300Z,25.20
2023-12-08T10:11:55.172Z,23.45
2023-12-08T10:16:48.174Z,22.55
2023-12-08T10:21:40.319Z,24.27
2023-12-08T10:26:33.072Z,22.52
2023-12-08T10:31:27.271Z,25.38
2023-12-08T10:36:22.479Z,32.83
2023-12-08T10:41:23.740Z,25.30
2023-12-08T10:46:17.036Z,25.48
2023-12-08T10:51:15.043Z,24.45
2023-12-08T10:56:18.225Z,25.17
2023-12-08T11:01:14.279Z,26.15
2023-12-08T11:06:39.783Z,35.60
2023-12-08T11:11:33.398Z,42.13
2023-12-08T11:16:33.730Z,44.25
2023-12-08T11:21:25.961Z,29.70
2023-12-08T11:26:38.368Z,38.33
2023-12-08T11:32:05.883Z,38.78
2023-12-08T11:37:00.641Z,35.28
2023-12-08T11:41:53.461Z,37.35
2023-12-08T11:46:45.297Z,35.85
2023-12-08T11:51:37.923Z,31.60
2023-12-08T11:56:46.943Z,29.15
2023-12-08T12:01:42.729Z,29.52
2023-12-08T12:06:34.776Z,32.38
2023-12-08T12:11:36.153Z,32.60
2023-12-08T12:16:28.724Z,31.75
2023-12-08T12:21:20.723Z,34.03
2023-12-08T12:26:14.754Z,33.25
2023-12-08T12:31:06.590Z,29.27
2023-12-08T12:35:58.401Z,28.35
2023-12-08T12:40:54.521Z,28.10
2023-12-08T12:45:46.516Z,29.00
2023-12-08T12:50:53.222Z,34.08
2023-12-08T12:55:47.041Z,35.40
2023-12-08T13:00:40.554Z,34.88
2023-12-08T13:05:32.854Z,36.15
2023-12-08T13:10:24.757Z,32.05
2023-12-08T13:15:18.974Z,39.13
2023-12-08T13:20:11.577Z,36.72
2023-12-08T13:25:03.623Z,33.92
2023-12-08T13:29:55.493Z,34.67
2023-12-08T13:34:47.428Z,37.33
2023-12-08T13:39:39.292Z,30.70
2023-12-08T13:44:31.231Z,30.95
2023-12-08T13:49:23.368Z,33.75
2023-12-08T13:54:15.278Z,34.80
2023-12-08T13:59:07.211Z,37.40
2023-12-08T14:03:59.320Z,35.67
2023-12-08T14:08:54.498Z,40.05
2023-12-08T14:13:46.469Z,41.97
2023-12-08T14:18:38.542Z,39.67
2023-12-08T14:23:30.445Z,37.30
2023-12-08T14:28:22.843Z,37.55
2023-12-08T14:33:15.607Z,37.90
2023-12-08T14:38:07.604Z,38.38
2023-12-08T14:42:59.514Z,37.28
2023-12-08T14:47:51.421Z,33.80
2023-12-08T14:52:43.300Z,33.40
2023-12-08T14:57:35.132Z,32.90
2023-12-08T15:02:26.936Z,37.90
2023-12-08T15:07:18.715Z,41.10
2023-12-08T15:12:10.908Z,36.78
2023-12-08T15:17:02.916Z,36.10
2023-12-08T15:22:00.662Z,36.42
2023-12-08T15:26:52.493Z,38.05
2023-12-08T15:31:44.409Z,38.42
2023-12-08T15:36:36.197Z,35.38
2023-12-08T15:41:27.991Z,36.53
2023-12-08T15:46:19.766Z,37.33
2023-12-08T15:51:14.780Z,40.17
2023-12-08T15:56:07.091Z,43.25
2023-12-08T16:00:59.156Z,39.88
2023-12-08T16:05:51.063Z,38.38
2023-12-08T16:10:43.121Z,48.10
2023-12-08T16:15:35.099Z,48.08
2023-12-08T16:20:27.030Z,48.08
2023-12-08T16:25:18.782Z,46.58
2023-12-08T16:30:11.131Z,40.80
2023-12-08T16:35:04.023Z,39.10
2023-12-08T16:39:55.981Z,40.03
2023-12-08T16:44:48.635Z,39.25
2023-12-08T16:49:40.815Z,43.03
2023-12-08T16:54:32.837Z,39.40
2023-12-08T16:59:24.735Z,38.80
2023-12-08T17:04:19.456Z,35.42
2023-12-08T17:09:11.325Z,36.03
2023-12-08T17:14:03.144Z,36.08
2023-12-08T17:18:55.098Z,34.60
2023-12-08T17:23:47.117Z,32.53
2023-12-08T17:28:38.967Z,30.00
2023-12-08T17:33:30.933Z,33.58
2023-12-08T17:38:23.172Z,37.10
2023-12-08T17:43:14.933Z,36.15
2023-12-08T17:48:07.677Z,30.25
2023-12-08T17:52:59.665Z,29.67
2023-12-08T17:57:51.507Z,31.80
2023-12-08T18:02:43.707Z,37.20
2023-12-08T18:07:36.114Z,36.33
2023-12-08T18:12:28.739Z,35.47
2023-12-08T18:17:21.577Z,38.10
2023-12-08T18:22:13.384Z,36.28
2023-12-08T18:27:05.636Z,35.90
2023-12-08T18:31:58.377Z,36.88
2023-12-08T18:36:50.820Z,53.13
2023-12-08T18:41:42.629Z,35.92
2023-12-08T18:46:34.584Z,38.03
2023-12-08T18:51:29.039Z,31.83
2023-12-08T18:56:21.783Z,33.15
2023-12-08T19:01:13.648Z,31.08
2023-12-08T19:06:05.765Z,33.88
2023-12-08T19:10:57.625Z,41.70
2023-12-08T19:15:49.519Z,33.08
2023-12-08T19:20:45.067Z,32.95
2023-12-08T19:25:36.934Z,30.90
2023-12-08T19:30:28.866Z,33.13
2023-12-08T19:35:21.828Z,31.65
2023-12-08T19:40:13.746Z,33.88
2023-12-08T19:45:06.609Z,34.83
2023-12-08T19:49:58.465Z,33.03
2023-12-08T19:54:50.352Z,30.35
2023-12-08T19:59:43.226Z,31.77
2023-12-08T20:04:34.977Z,31.10
2023-12-08T20:09:26.794Z,30.70
2023-12-08T20:14:18.610Z,31.98
2023-12-08T20:19:11.006Z,32.53
2023-12-08T20:24:03.274Z,34.90
2023-12-08T20:28:55.997Z,35.00
2023-12-08T20:33:48.647Z,31.25
2023-12-08T20:38:41.179Z,28.20
2023-12-08T20:43:32.981Z,28.50
2023-12-08T20:48:25.797Z,23.10
2023-12-08T20:53:17.827Z,25.80
2023-12-08T20:58:09.647Z,24.63
2023-12-08T21:03:01.511Z,24.17
2023-12-08T21:07:53.622Z,24.02
2023-12-08T21:12:45.416Z,32.28
2023-12-08T21:17:39.110Z,34.28
2023-12-08T21:22:31.005Z,33.38
2023-12-08T21:27:23.440Z,35.92
2023-12-08T21:32:15.313Z,34.22
2023-12-08T21:37:07.219Z,37.50
2023-12-08T21:42:04.569Z,35.15
2023-12-08T21:46:56.473Z,36.75
2023-12-08T21:51:48.229Z,37.13
2023-12-08T21:56:40.059Z,33.67
2023-12-08T22:01:31.882Z,38.72
2023-12-08T22:06:24.265Z,32.67
2023-12-08T22:11:16.075Z,27.73
2023-12-08T22:16:07.969Z,29.73
2023-12-08T22:20:59.824Z,29.38
2023-12-08T22:25:51.687Z,28.70
2023-12-08T22:30:43.450Z,29.02
2023-12-08T22:35:35.251Z,30.20
2023-12-08T22:40:27.070Z,24.65
2023-12-08T22:45:19.315Z,23.92
2023-12-08T22:50:11.289Z,21.67
2023-12-08T22:55:03.417Z,25.25
2023-12-08T22:59:55.223Z,26.30
2023-12-08T23:04:47.075Z,23.83
2023-12-08T23:09:39.081Z,21.73
2023-12-08T23:14:30.921Z,21.38
2023-12-08T23:19:23.019Z,20.80
2023-12-08T23:24:14.868Z,18.92
2023-12-08T23:29:06.702Z,22.70
2023-12-08T23:33:58.677Z,20.90
2023-12-08T23:38:50.712Z,17.38
2023-12-08T23:43:42.641Z,19.95
2023-12-08T23:48:34.704Z,17.95
2023-12-08T23:53:27.029Z,17.13
2023-12-08T23:58:18.883Z,18.38
